sensor_id;sensor_type;location;lat;lon;timestamp;P1;durP1;ratioP1;P2;durP2;ratioP2
2706;SDS011;7819;48.046;7.642;2023-03-01T00:02:02;11.33;;;9.53;;
2706;SDS011;7819;48.046;7.642;2023-03-01T00:04:29;13.20;;;9.33;;
2706;SDS011;7819;48.046;7.642;2023-03-01T00:06:54;11.20;;;9.30;;
2706;SDS011;7819;48.046;7.642;2023-03-01T00:09:19;11.83;;;8.63;;
2706;SDS011;7819;48.046;7.642;2023-03-01T00:11:45;12.43;;;8.30;;
2706;SDS011;7819;48.046;7.642;2023-03-01T00:14:10;9.90;;;8.10;;
2706;SDS011;7819;48.046;7.642;2023-03-01T00:16:36;14.27;;;9.90;;
2706;SDS011;7819;48.046;7.642;2023-03-01T00:19:04;11.17;;;9.10;;
2706;SDS011;7819;48.046;7.642;2023-03-01T00:21:29;12.90;;;8.83;;
2706;SDS011;7819;48.046;7.642;2023-03-01T00:23:54;12.90;;;10.90;;
2706;SDS011;7819;48.046;7.642;2023-03-01T00:26:20;11.63;;;8.97;;
2706;SDS011;7819;48.046;7.642;2023-03-01T00:28:46;14.97;;;9.70;;
2706;SDS011;7819;48.046;7.642;2023-03-01T00:31:12;13.00;;;9.47;;
2706;SDS011;7819;48.046;7.642;2023-03-01T00:33:37;14.87;;;9.70;;
2706;SDS011;7819;48.046;7.642;2023-03-01T00:36:03;15.13;;;9.60;;
2706;SDS011;7819;48.046;7.642;2023-03-01T00:38:28;11.73;;;9.63;;
2706;SDS011;7819;48.046;7.642;2023-03-01T00:40:54;13.83;;;9.23;;
2706;SDS011;7819;48.046;7.642;2023-03-01T00:43:19;12.83;;;9.73;;
2706;SDS011;7819;48.046;7.642;2023-03-01T00:45:44;9.90;;;8.90;;
2706;SDS011;7819;48.046;7.642;2023-03-01T00:48:09;12.70;;;9.23;;
2706;SDS011;7819;48.046;7.642;2023-03-01T00:50:34;15.00;;;9.70;;
2706;SDS011;7819;48.046;7.642;2023-03-01T00:53:00;16.20;;;10.40;;
2706;SDS011;7819;48.046;7.642;2023-03-01T00:55:25;10.77;;;9.13;;
2706;SDS011;7819;48.046;7.642;2023-03-01T00:57:50;19.27;;;11.53;;
2706;SDS011;7819;48.046;7.642;2023-03-01T01:00:16;13.87;;;10.27;;
2706;SDS011;7819;48.046;7.642;2023-03-01T01:02:41;12.63;;;9.63;;
2706;SDS011;7819;48.046;7.642;2023-03-01T01:05:06;10.77;;;8.53;;
2706;SDS011;7819;48.046;7.642;2023-03-01T01:07:32;10.87;;;8.93;;
2706;SDS011;7819;48.046;7.642;2023-03-01T01:09:57;14.80;;;10.63;;
2706;SDS011;7819;48.046;7.642;2023-03-01T01:12:22;11.90;;;9.70;;
2706;SDS011;7819;48.046;7.642;2023-03-01T01:14:47;12.93;;;10.00;;
2706;SDS011;7819;48.046;7.642;2023-03-01T01:17:12;13.17;;;9.83;;
2706;SDS011;7819;48.046;7.642;2023-03-01T01:19:38;12.67;;;9.20;;
2706;SDS011;7819;48.046;7.642;2023-03-01T01:22:03;13.50;;;9.00;;
2706;SDS011;7819;48.046;7.642;2023-03-01T01:24:28;11.23;;;8.77;;
2706;SDS011;7819;48.046;7.642;2023-03-01T01:26:54;15.23;;;10.10;;
2706;SDS011;7819;48.046;7.642;2023-03-01T01:29:19;13.83;;;9.07;;
2706;SDS011;7819;48.046;7.642;2023-03-01T01:31:44;11.93;;;9.20;;
2706;SDS011;7819;48.046;7.642;2023-03-01T01:34:13;12.00;;;9.30;;
2706;SDS011;7819;48.046;7.642;2023-03-01T01:36:38;13.73;;;9.67;;
2706;SDS011;7819;48.046;7.642;2023-03-01T01:39:03;10.57;;;9.30;;
2706;SDS011;7819;48.046;7.642;2023-03-01T01:41:29;11.37;;;8.90;;
2706;SDS011;7819;48.046;7.642;2023-03-01T01:44:11;12.37;;;9.43;;
2706;SDS011;7819;48.046;7.642;2023-03-01T01:46:47;12.90;;;9.93;;
2706;SDS011;7819;48.046;7.642;2023-03-01T01:51:39;13.73;;;10.43;;
2706;SDS011;7819;48.046;7.642;2023-03-01T01:54:10;12.20;;;8.27;;
2706;SDS011;7819;48.046;7.642;2023-03-01T01:56:37;12.80;;;9.33;;
2706;SDS011;7819;48.046;7.642;2023-03-01T01:59:04;11.50;;;9.30;;
2706;SDS011;7819;48.046;7.642;2023-03-01T02:01:29;11.97;;;10.03;;
2706;SDS011;7819;48.046;7.642;2023-03-01T02:03:55;13.93;;;10.37;;
2706;SDS011;7819;48.046;7.642;2023-03-01T02:06:37;11.83;;;7.60;;
2706;SDS011;7819;48.046;7.642;2023-03-01T02:09:11;12.17;;;10.17;;
2706;SDS011;7819;48.046;7.642;2023-03-01T02:11:37;10.30;;;9.10;;
2706;SDS011;7819;48.046;7.642;2023-03-01T02:14:03;12.70;;;10.37;;
2706;SDS011;7819;48.046;7.642;2023-03-01T02:16:28;14.03;;;10.20;;
2706;SDS011;7819;48.046;7.642;2023-03-01T02:18:53;13.37;;;9.30;;
2706;SDS011;7819;48.046;7.642;2023-03-01T02:23:53;11.87;;;9.30;;
2706;SDS011;7819;48.046;7.642;2023-03-01T02:28:45;12.63;;;9.83;;
2706;SDS011;7819;48.046;7.642;2023-03-01T02:31:11;14.20;;;9.30;;
2706;SDS011;7819;48.046;7.642;2023-03-01T02:33:57;13.57;;;9.03;;
2706;SDS011;7819;48.046;7.642;2023-03-01T02:36:24;13.53;;;9.83;;
2706;SDS011;7819;48.046;7.642;2023-03-01T02:38:51;16.83;;;10.50;;
2706;SDS011;7819;48.046;7.642;2023-03-01T02:41:17;16.17;;;9.97;;
2706;SDS011;7819;48.046;7.642;2023-03-01T02:43:44;13.27;;;9.33;;
2706;SDS011;7819;48.046;7.642;2023-03-01T02:46:22;12.53;;;9.70;;
2706;SDS011;7819;48.046;7.642;2023-03-01T02:48:49;12.07;;;10.37;;
2706;SDS011;7819;48.046;7.642;2023-03-01T02:51:18;15.20;;;10.53;;
2706;SDS011;7819;48.046;7.642;2023-03-01T02:56:13;14.48;;;9.93;;
2706;SDS011;7819;48.046;7.642;2023-03-01T02:58:41;14.33;;;9.73;;
2706;SDS011;7819;48.046;7.642;2023-03-01T03:01:12;14.43;;;9.40;;
2706;SDS011;7819;48.046;7.642;2023-03-01T03:03:40;14.57;;;10.40;;
2706;SDS011;7819;48.046;7.642;2023-03-01T03:06:05;14.70;;;11.00;;
2706;SDS011;7819;48.046;7.642;2023-03-01T03:08:30;14.40;;;10.50;;
2706;SDS011;7819;48.046;7.642;2023-03-01T03:10:55;14.43;;;9.20;;
2706;SDS011;7819;48.046;7.642;2023-03-01T03:13:21;13.83;;;10.07;;
2706;SDS011;7819;48.046;7.642;2023-03-01T03:15:47;16.00;;;10.40;;
2706;SDS011;7819;48.046;7.642;2023-03-01T03:18:14;13.43;;;9.63;;
2706;SDS011;7819;48.046;7.642;2023-03-01T03:20:40;14.23;;;10.03;;
2706;SDS011;7819;48.046;7.642;2023-03-01T03:23:06;12.47;;;10.07;;
2706;SDS011;7819;48.046;7.642;2023-03-01T03:25:31;19.80;;;11.13;;
2706;SDS011;7819;48.046;7.642;2023-03-01T03:27:57;11.87;;;9.23;;
2706;SDS011;7819;48.046;7.642;2023-03-01T03:30:23;13.23;;;11.20;;
2706;SDS011;7819;48.046;7.642;2023-03-01T03:32:49;12.77;;;9.67;;
2706;SDS011;7819;48.046;7.642;2023-03-01T03:35:22;13.97;;;10.93;;
2706;SDS011;7819;48.046;7.642;2023-03-01T03:37:49;16.73;;;10.87;;
2706;SDS011;7819;48.046;7.642;2023-03-01T03:40:27;17.07;;;11.27;;
2706;SDS011;7819;48.046;7.642;2023-03-01T03:42:53;14.23;;;10.53;;
2706;SDS011;7819;48.046;7.642;2023-03-01T03:45:18;16.53;;;11.10;;
2706;SDS011;7819;48.046;7.642;2023-03-01T03:47:43;14.67;;;10.70;;
2706;SDS011;7819;48.046;7.642;2023-03-01T03:50:09;13.90;;;10.07;;
2706;SDS011;7819;48.046;7.642;2023-03-01T03:52:35;14.73;;;10.90;;
2706;SDS011;7819;48.046;7.642;2023-03-01T03:55:00;12.93;;;9.93;;
2706;SDS011;7819;48.046;7.642;2023-03-01T03:57:25;13.90;;;10.00;;
2706;SDS011;7819;48.046;7.642;2023-03-01T03:59:50;13.90;;;11.27;;
2706;SDS011;7819;48.046;7.642;2023-03-01T04:02:15;18.50;;;10.37;;
2706;SDS011;7819;48.046;7.642;2023-03-01T04:04:47;15.00;;;10.77;;
2706;SDS011;7819;48.046;7.642;2023-03-01T04:07:14;15.67;;;11.43;;
2706;SDS011;7819;48.046;7.642;2023-03-01T04:09:39;12.87;;;11.00;;
2706;SDS011;7819;48.046;7.642;2023-03-01T04:12:06;13.27;;;9.90;;
2706;SDS011;7819;48.046;7.642;2023-03-01T04:14:31;15.77;;;11.10;;
2706;SDS011;7819;48.046;7.642;2023-03-01T04:16:57;12.70;;;9.43;;
2706;SDS011;7819;48.046;7.642;2023-03-01T04:19:22;15.40;;;11.90;;
2706;SDS011;7819;48.046;7.642;2023-03-01T04:21:47;17.03;;;11.20;;
2706;SDS011;7819;48.046;7.642;2023-03-01T04:24:12;14.63;;;10.93;;
2706;SDS011;7819;48.046;7.642;2023-03-01T04:26:38;15.80;;;10.70;;
2706;SDS011;7819;48.046;7.642;2023-03-01T04:29:03;15.27;;;9.90;;
2706;SDS011;7819;48.046;7.642;2023-03-01T04:31:28;15.17;;;10.60;;
2706;SDS011;7819;48.046;7.642;2023-03-01T04:33:54;17.57;;;11.77;;
2706;SDS011;7819;48.046;7.642;2023-03-01T04:36:21;14.17;;;10.80;;
2706;SDS011;7819;48.046;7.642;2023-03-01T04:38:47;14.03;;;11.50;;
2706;SDS011;7819;48.046;7.642;2023-03-01T04:41:13;16.80;;;10.93;;
2706;SDS011;7819;48.046;7.642;2023-03-01T04:43:38;15.93;;;10.77;;
2706;SDS011;7819;48.046;7.642;2023-03-01T04:46:04;15.17;;;10.97;;
2706;SDS011;7819;48.046;7.642;2023-03-01T04:48:31;14.70;;;10.10;;
2706;SDS011;7819;48.046;7.642;2023-03-01T04:50:57;12.80;;;10.07;;
2706;SDS011;7819;48.046;7.642;2023-03-01T04:53:23;14.23;;;10.40;;
2706;SDS011;7819;48.046;7.642;2023-03-01T04:55:48;14.90;;;11.77;;
2706;SDS011;7819;48.046;7.642;2023-03-01T04:58:13;14.43;;;10.53;;
2706;SDS011;7819;48.046;7.642;2023-03-01T05:00:38;17.80;;;10.90;;
2706;SDS011;7819;48.046;7.642;2023-03-01T05:03:03;14.57;;;10.20;;
2706;SDS011;7819;48.046;7.642;2023-03-01T05:05:30;12.73;;;9.83;;
2706;SDS011;7819;48.046;7.642;2023-03-01T05:07:57;16.90;;;11.30;;
2706;SDS011;7819;48.046;7.642;2023-03-01T05:10:22;16.30;;;11.33;;
2706;SDS011;7819;48.046;7.642;2023-03-01T05:12:48;15.33;;;12.40;;
2706;SDS011;7819;48.046;7.642;2023-03-01T05:15:13;15.20;;;10.80;;
2706;SDS011;7819;48.046;7.642;2023-03-01T05:17:39;16.40;;;11.33;;
2706;SDS011;7819;48.046;7.642;2023-03-01T05:20:04;16.77;;;11.63;;
2706;SDS011;7819;48.046;7.642;2023-03-01T05:22:33;13.83;;;12.17;;
2706;SDS011;7819;48.046;7.642;2023-03-01T05:24:59;14.20;;;11.10;;
2706;SDS011;7819;48.046;7.642;2023-03-01T05:27:24;14.53;;;12.33;;
2706;SDS011;7819;48.046;7.642;2023-03-01T05:29:49;15.13;;;11.00;;
2706;SDS011;7819;48.046;7.642;2023-03-01T05:32:14;15.37;;;11.60;;
2706;SDS011;7819;48.046;7.642;2023-03-01T05:34:40;14.30;;;12.37;;
2706;SDS011;7819;48.046;7.642;2023-03-01T05:37:05;17.03;;;11.17;;
2706;SDS011;7819;48.046;7.642;2023-03-01T05:39:32;15.60;;;11.17;;
2706;SDS011;7819;48.046;7.642;2023-03-01T05:41:58;14.20;;;11.10;;
2706;SDS011;7819;48.046;7.642;2023-03-01T05:44:26;14.77;;;11.17;;
2706;SDS011;7819;48.046;7.642;2023-03-01T05:46:51;15.20;;;10.60;;
2706;SDS011;7819;48.046;7.642;2023-03-01T05:49:16;13.73;;;11.40;;
2706;SDS011;7819;48.046;7.642;2023-03-01T05:51:42;21.53;;;14.00;;
2706;SDS011;7819;48.046;7.642;2023-03-01T05:54:08;15.50;;;12.90;;
2706;SDS011;7819;48.046;7.642;2023-03-01T05:56:33;18.00;;;12.80;;
2706;SDS011;7819;48.046;7.642;2023-03-01T05:58:59;17.37;;;11.47;;
2706;SDS011;7819;48.046;7.642;2023-03-01T06:01:24;17.63;;;11.63;;
2706;SDS011;7819;48.046;7.642;2023-03-01T06:03:49;17.37;;;12.13;;
2706;SDS011;7819;48.046;7.642;2023-03-01T06:06:14;17.87;;;12.60;;
2706;SDS011;7819;48.046;7.642;2023-03-01T06:08:39;18.00;;;13.33;;
2706;SDS011;7819;48.046;7.642;2023-03-01T06:11:05;18.13;;;13.17;;
2706;SDS011;7819;48.046;7.642;2023-03-01T06:13:32;15.60;;;12.60;;
2706;SDS011;7819;48.046;7.642;2023-03-01T06:15:57;17.40;;;12.03;;
2706;SDS011;7819;48.046;7.642;2023-03-01T06:18:22;22.33;;;16.40;;
2706;SDS011;7819;48.046;7.642;2023-03-01T06:20:53;19.30;;;13.00;;
2706;SDS011;7819;48.046;7.642;2023-03-01T06:23:19;19.90;;;15.40;;
2706;SDS011;7819;48.046;7.642;2023-03-01T06:25:44;19.77;;;13.60;;
2706;SDS011;7819;48.046;7.642;2023-03-01T06:28:09;15.57;;;13.20;;
2706;SDS011;7819;48.046;7.642;2023-03-01T06:30:34;18.20;;;13.93;;
2706;SDS011;7819;48.046;7.642;2023-03-01T06:33:00;18.20;;;12.77;;
2706;SDS011;7819;48.046;7.642;2023-03-01T06:35:26;19.17;;;15.07;;
2706;SDS011;7819;48.046;7.642;2023-03-01T06:37:54;15.40;;;11.77;;
2706;SDS011;7819;48.046;7.642;2023-03-01T06:40:20;19.33;;;13.53;;
2706;SDS011;7819;48.046;7.642;2023-03-01T06:42:47;17.97;;;14.67;;
2706;SDS011;7819;48.046;7.642;2023-03-01T06:45:14;17.77;;;13.40;;
2706;SDS011;7819;48.046;7.642;2023-03-01T06:47:39;22.50;;;14.40;;
2706;SDS011;7819;48.046;7.642;2023-03-01T06:50:04;20.13;;;13.40;;
2706;SDS011;7819;48.046;7.642;2023-03-01T06:52:29;19.23;;;13.90;;
2706;SDS011;7819;48.046;7.642;2023-03-01T06:54:55;24.60;;;15.47;;
2706;SDS011;7819;48.046;7.642;2023-03-01T06:57:20;20.47;;;15.40;;
2706;SDS011;7819;48.046;7.642;2023-03-01T06:59:46;21.73;;;15.20;;
2706;SDS011;7819;48.046;7.642;2023-03-01T07:02:11;15.90;;;13.57;;
2706;SDS011;7819;48.046;7.642;2023-03-01T07:04:37;22.37;;;16.20;;
2706;SDS011;7819;48.046;7.642;2023-03-01T07:07:02;26.70;;;19.00;;
2706;SDS011;7819;48.046;7.642;2023-03-01T07:09:28;23.87;;;15.67;;
2706;SDS011;7819;48.046;7.642;2023-03-01T07:11:53;19.33;;;15.63;;
2706;SDS011;7819;48.046;7.642;2023-03-01T07:14:18;26.13;;;15.30;;
2706;SDS011;7819;48.046;7.642;2023-03-01T07:16:44;25.27;;;15.70;;
2706;SDS011;7819;48.046;7.642;2023-03-01T07:19:09;17.23;;;12.57;;
2706;SDS011;7819;48.046;7.642;2023-03-01T07:21:35;18.00;;;13.10;;
2706;SDS011;7819;48.046;7.642;2023-03-01T07:24:00;20.10;;;14.63;;
2706;SDS011;7819;48.046;7.642;2023-03-01T07:26:25;20.80;;;16.50;;
2706;SDS011;7819;48.046;7.642;2023-03-01T07:28:50;18.83;;;15.87;;
2706;SDS011;7819;48.046;7.642;2023-03-01T07:31:15;19.03;;;15.43;;
2706;SDS011;7819;48.046;7.642;2023-03-01T07:33:40;18.43;;;13.70;;
2706;SDS011;7819;48.046;7.642;2023-03-01T07:36:06;19.90;;;14.47;;
2706;SDS011;7819;48.046;7.642;2023-03-01T07:38:31;22.77;;;15.57;;
2706;SDS011;7819;48.046;7.642;2023-03-01T07:41:00;18.00;;;12.67;;
2706;SDS011;7819;48.046;7.642;2023-03-01T07:43:26;20.80;;;15.23;;
2706;SDS011;7819;48.046;7.642;2023-03-01T07:45:51;17.70;;;14.40;;
2706;SDS011;7819;48.046;7.642;2023-03-01T07:48:16;15.93;;;13.03;;
2706;SDS011;7819;48.046;7.642;2023-03-01T07:50:42;20.03;;;13.27;;
2706;SDS011;7819;48.046;7.642;2023-03-01T07:53:07;17.10;;;14.23;;
2706;SDS011;7819;48.046;7.642;2023-03-01T07:55:33;20.63;;;14.90;;
2706;SDS011;7819;48.046;7.642;2023-03-01T07:57:58;20.87;;;15.87;;
2706;SDS011;7819;48.046;7.642;2023-03-01T08:00:23;21.77;;;16.40;;
2706;SDS011;7819;48.046;7.642;2023-03-01T08:02:48;18.57;;;14.60;;
2706;SDS011;7819;48.046;7.642;2023-03-01T08:05:13;17.70;;;12.93;;
2706;SDS011;7819;48.046;7.642;2023-03-01T08:07:39;19.40;;;13.30;;
2706;SDS011;7819;48.046;7.642;2023-03-01T08:10:04;22.90;;;15.77;;
2706;SDS011;7819;48.046;7.642;2023-03-01T08:12:29;21.00;;;13.73;;
2706;SDS011;7819;48.046;7.642;2023-03-01T08:14:54;27.27;;;15.53;;
2706;SDS011;7819;48.046;7.642;2023-03-01T08:17:20;17.60;;;12.47;;
2706;SDS011;7819;48.046;7.642;2023-03-01T08:19:45;20.40;;;14.40;;
2706;SDS011;7819;48.046;7.642;2023-03-01T08:22:10;27.40;;;16.97;;
2706;SDS011;7819;48.046;7.642;2023-03-01T08:24:36;22.23;;;15.93;;
2706;SDS011;7819;48.046;7.642;2023-03-01T08:27:01;21.90;;;14.20;;
2706;SDS011;7819;48.046;7.642;2023-03-01T08:29:27;15.93;;;12.30;;
2706;SDS011;7819;48.046;7.642;2023-03-01T08:31:53;15.23;;;11.27;;
2706;SDS011;7819;48.046;7.642;2023-03-01T08:34:18;16.43;;;12.60;;
2706;SDS011;7819;48.046;7.642;2023-03-01T08:36:44;15.93;;;12.30;;
2706;SDS011;7819;48.046;7.642;2023-03-01T08:39:11;20.67;;;12.87;;
2706;SDS011;7819;48.046;7.642;2023-03-01T08:41:36;17.97;;;13.60;;
2706;SDS011;7819;48.046;7.642;2023-03-01T08:44:02;17.43;;;13.53;;
2706;SDS011;7819;48.046;7.642;2023-03-01T08:46:28;19.83;;;13.70;;
2706;SDS011;7819;48.046;7.642;2023-03-01T08:48:54;15.80;;;11.90;;
2706;SDS011;7819;48.046;7.642;2023-03-01T08:51:19;14.57;;;12.00;;
2706;SDS011;7819;48.046;7.642;2023-03-01T08:53:45;18.83;;;13.70;;
2706;SDS011;7819;48.046;7.642;2023-03-01T08:56:10;17.07;;;13.77;;
2706;SDS011;7819;48.046;7.642;2023-03-01T08:58:36;20.50;;;13.40;;
2706;SDS011;7819;48.046;7.642;2023-03-01T09:01:06;17.83;;;13.00;;
2706;SDS011;7819;48.046;7.642;2023-03-01T09:03:31;14.57;;;11.30;;
2706;SDS011;7819;48.046;7.642;2023-03-01T09:05:59;18.10;;;13.23;;
2706;SDS011;7819;48.046;7.642;2023-03-01T09:08:25;15.10;;;11.03;;
2706;SDS011;7819;48.046;7.642;2023-03-01T09:10:50;12.03;;;10.20;;
2706;SDS011;7819;48.046;7.642;2023-03-01T09:13:15;15.50;;;12.20;;
2706;SDS011;7819;48.046;7.642;2023-03-01T09:15:40;15.70;;;11.90;;
2706;SDS011;7819;48.046;7.642;2023-03-01T09:18:05;16.17;;;12.60;;
2706;SDS011;7819;48.046;7.642;2023-03-01T09:20:31;15.00;;;10.70;;
2706;SDS011;7819;48.046;7.642;2023-03-01T09:22:57;17.57;;;13.07;;
2706;SDS011;7819;48.046;7.642;2023-03-01T09:25:22;16.07;;;11.93;;
2706;SDS011;7819;48.046;7.642;2023-03-01T09:27:47;16.90;;;10.37;;
2706;SDS011;7819;48.046;7.642;2023-03-01T09:30:15;17.87;;;12.03;;
2706;SDS011;7819;48.046;7.642;2023-03-01T09:32:41;14.43;;;10.97;;
2706;SDS011;7819;48.046;7.642;2023-03-01T09:35:07;15.40;;;10.90;;
2706;SDS011;7819;48.046;7.642;2023-03-01T09:37:33;17.10;;;12.30;;
2706;SDS011;7819;48.046;7.642;2023-03-01T09:39:59;15.20;;;11.60;;
2706;SDS011;7819;48.046;7.642;2023-03-01T09:42:24;14.07;;;11.00;;
2706;SDS011;7819;48.046;7.642;2023-03-01T09:44:51;17.23;;;12.70;;
2706;SDS011;7819;48.046;7.642;2023-03-01T09:47:21;15.77;;;11.73;;
2706;SDS011;7819;48.046;7.642;2023-03-01T09:49:58;17.73;;;12.70;;
2706;SDS011;7819;48.046;7.642;2023-03-01T09:52:36;15.60;;;11.00;;
2706;SDS011;7819;48.046;7.642;2023-03-01T09:55:08;15.93;;;11.43;;
2706;SDS011;7819;48.046;7.642;2023-03-01T09:57:39;14.40;;;10.90;;
2706;SDS011;7819;48.046;7.642;2023-03-01T10:00:28;14.77;;;10.83;;
2706;SDS011;7819;48.046;7.642;2023-03-01T10:03:03;15.53;;;11.20;;
2706;SDS011;7819;48.046;7.642;2023-03-01T10:05:36;14.47;;;10.80;;
2706;SDS011;7819;48.046;7.642;2023-03-01T10:08:10;14.53;;;10.97;;
2706;SDS011;7819;48.046;7.642;2023-03-01T10:10:39;13.93;;;11.77;;
2706;SDS011;7819;48.046;7.642;2023-03-01T10:13:13;14.50;;;11.50;;
2706;SDS011;7819;48.046;7.642;2023-03-01T10:15:41;15.10;;;10.93;;
2706;SDS011;7819;48.046;7.642;2023-03-01T10:18:12;17.13;;;11.03;;
2706;SDS011;7819;48.046;7.642;2023-03-01T10:20:45;19.30;;;11.77;;
2706;SDS011;7819;48.046;7.642;2023-03-01T10:23:11;20.60;;;13.03;;
2706;SDS011;7819;48.046;7.642;2023-03-01T10:25:42;17.10;;;12.07;;
2706;SDS011;7819;48.046;7.642;2023-03-01T10:28:31;17.13;;;12.47;;
2706;SDS011;7819;48.046;7.642;2023-03-01T10:30:55;16.37;;;12.43;;
2706;SDS011;7819;48.046;7.642;2023-03-01T10:33:22;14.37;;;11.13;;
2706;SDS011;7819;48.046;7.642;2023-03-01T10:35:48;18.87;;;12.30;;
2706;SDS011;7819;48.046;7.642;2023-03-01T10:38:13;16.93;;;12.40;;
2706;SDS011;7819;48.046;7.642;2023-03-01T10:40:55;17.30;;;11.70;;
2706;SDS011;7819;48.046;7.642;2023-03-01T10:43:22;14.40;;;11.83;;
2706;SDS011;7819;48.046;7.642;2023-03-01T10:45:48;19.33;;;13.00;;
2706;SDS011;7819;48.046;7.642;2023-03-01T10:50:42;15.73;;;11.60;;
2706;SDS011;7819;48.046;7.642;2023-03-01T10:53:16;16.40;;;11.13;;
2706;SDS011;7819;48.046;7.642;2023-03-01T10:55:44;15.97;;;11.80;;
2706;SDS011;7819;48.046;7.642;2023-03-01T10:58:17;15.37;;;10.90;;
2706;SDS011;7819;48.046;7.642;2023-03-01T11:03:13;14.43;;;10.93;;
2706;SDS011;7819;48.046;7.642;2023-03-01T11:06:00;13.20;;;10.90;;
2706;SDS011;7819;48.046;7.642;2023-03-01T11:09:01;16.77;;;13.10;;
2706;SDS011;7819;48.046;7.642;2023-03-01T11:11:18;17.50;;;13.70;;
2706;SDS011;7819;48.046;7.642;2023-03-01T11:13:49;16.90;;;12.30;;
2706;SDS011;7819;48.046;7.642;2023-03-01T11:16:15;16.03;;;11.83;;
2706;SDS011;7819;48.046;7.642;2023-03-01T11:18:55;19.27;;;13.17;;
2706;SDS011;7819;48.046;7.642;2023-03-01T11:21:20;17.67;;;12.30;;
2706;SDS011;7819;48.046;7.642;2023-03-01T11:23:45;18.23;;;11.53;;
2706;SDS011;7819;48.046;7.642;2023-03-01T11:26:11;15.20;;;12.70;;
2706;SDS011;7819;48.046;7.642;2023-03-01T11:28:38;16.33;;;11.50;;
2706;SDS011;7819;48.046;7.642;2023-03-01T11:31:08;16.60;;;11.63;;
2706;SDS011;7819;48.046;7.642;2023-03-01T11:38:51;15.80;;;12.73;;
2706;SDS011;7819;48.046;7.642;2023-03-01T11:41:21;16.13;;;12.97;;
2706;SDS011;7819;48.046;7.642;2023-03-01T11:56:51;16.30;;;12.97;;
2706;SDS011;7819;48.046;7.642;2023-03-01T12:00:02;15.80;;;12.10;;
2706;SDS011;7819;48.046;7.642;2023-03-01T12:17:57;19.53;;;12.70;;
2706;SDS011;7819;48.046;7.642;2023-03-01T12:25:41;14.83;;;11.00;;
2706;SDS011;7819;48.046;7.642;2023-03-01T12:38:45;15.90;;;12.37;;
2706;SDS011;7819;48.046;7.642;2023-03-01T12:43:41;15.03;;;12.00;;
2706;SDS011;7819;48.046;7.642;2023-03-01T12:51:26;16.53;;;12.37;;
2706;SDS011;7819;48.046;7.642;2023-03-01T12:53:53;15.23;;;12.90;;
2706;SDS011;7819;48.046;7.642;2023-03-01T12:56:29;14.73;;;12.00;;
2706;SDS011;7819;48.046;7.642;2023-03-01T13:01:39;16.53;;;12.23;;
2706;SDS011;7819;48.046;7.642;2023-03-01T13:06:46;14.10;;;11.20;;
2706;SDS011;7819;48.046;7.642;2023-03-01T13:11:48;15.80;;;11.43;;
2706;SDS011;7819;48.046;7.642;2023-03-01T13:16:53;17.30;;;12.60;;
2706;SDS011;7819;48.046;7.642;2023-03-01T13:19:23;13.57;;;11.63;;
2706;SDS011;7819;48.046;7.642;2023-03-01T13:21:49;15.77;;;11.90;;
2706;SDS011;7819;48.046;7.642;2023-03-01T13:24:27;16.53;;;12.10;;
2706;SDS011;7819;48.046;7.642;2023-03-01T13:29:31;16.83;;;12.83;;
2706;SDS011;7819;48.046;7.642;2023-03-01T13:32:11;17.57;;;13.00;;
2706;SDS011;7819;48.046;7.642;2023-03-01T13:34:44;14.20;;;11.97;;
2706;SDS011;7819;48.046;7.642;2023-03-01T13:37:10;14.47;;;11.50;;
2706;SDS011;7819;48.046;7.642;2023-03-01T13:39:39;14.13;;;12.33;;
2706;SDS011;7819;48.046;7.642;2023-03-01T13:44:49;13.80;;;12.23;;
2706;SDS011;7819;48.046;7.642;2023-03-01T13:47:16;20.67;;;13.60;;
2706;SDS011;7819;48.046;7.642;2023-03-01T13:49:50;15.57;;;12.10;;
2706;SDS011;7819;48.046;7.642;2023-03-01T13:54:50;15.93;;;13.70;;
2706;SDS011;7819;48.046;7.642;2023-03-01T13:57:19;15.50;;;11.87;;
2706;SDS011;7819;48.046;7.642;2023-03-01T13:59:49;15.97;;;12.00;;
2706;SDS011;7819;48.046;7.642;2023-03-01T14:02:14;17.57;;;13.23;;
2706;SDS011;7819;48.046;7.642;2023-03-01T14:04:39;16.20;;;12.47;;
2706;SDS011;7819;48.046;7.642;2023-03-01T14:07:18;15.53;;;12.30;;
2706;SDS011;7819;48.046;7.642;2023-03-01T14:09:45;14.40;;;12.23;;
2706;SDS011;7819;48.046;7.642;2023-03-01T14:17:46;17.33;;;12.37;;
2706;SDS011;7819;48.046;7.642;2023-03-01T14:20:18;19.80;;;13.33;;
2706;SDS011;7819;48.046;7.642;2023-03-01T14:22:44;18.40;;;14.50;;
2706;SDS011;7819;48.046;7.642;2023-03-01T14:25:17;15.93;;;12.27;;
2706;SDS011;7819;48.046;7.642;2023-03-01T14:27:43;17.63;;;13.00;;
2706;SDS011;7819;48.046;7.642;2023-03-01T14:30:18;18.10;;;13.90;;
2706;SDS011;7819;48.046;7.642;2023-03-01T14:32:53;19.53;;;16.07;;
2706;SDS011;7819;48.046;7.642;2023-03-01T14:35:23;16.77;;;13.60;;
2706;SDS011;7819;48.046;7.642;2023-03-01T14:37:49;21.20;;;13.53;;
2706;SDS011;7819;48.046;7.642;2023-03-01T14:42:52;17.83;;;13.37;;
2706;SDS011;7819;48.046;7.642;2023-03-01T14:45:18;19.93;;;15.33;;
2706;SDS011;7819;48.046;7.642;2023-03-01T14:47:44;18.63;;;13.37;;
2706;SDS011;7819;48.046;7.642;2023-03-01T14:50:20;15.70;;;12.47;;
2706;SDS011;7819;48.046;7.642;2023-03-01T14:52:47;18.00;;;12.67;;
2706;SDS011;7819;48.046;7.642;2023-03-01T14:55:15;18.70;;;14.53;;
2706;SDS011;7819;48.046;7.642;2023-03-01T14:57:45;17.63;;;13.50;;
2706;SDS011;7819;48.046;7.642;2023-03-01T15:00:15;19.07;;;14.47;;
2706;SDS011;7819;48.046;7.642;2023-03-01T15:02:42;17.17;;;12.80;;
2706;SDS011;7819;48.046;7.642;2023-03-01T15:05:08;17.67;;;14.03;;
2706;SDS011;7819;48.046;7.642;2023-03-01T15:07:35;17.80;;;12.93;;
2706;SDS011;7819;48.046;7.642;2023-03-01T15:10:02;19.80;;;13.80;;
2706;SDS011;7819;48.046;7.642;2023-03-01T15:12:39;16.70;;;12.53;;
2706;SDS011;7819;48.046;7.642;2023-03-01T15:15:30;20.03;;;14.20;;
2706;SDS011;7819;48.046;7.642;2023-03-01T15:17:56;19.13;;;12.23;;
2706;SDS011;7819;48.046;7.642;2023-03-01T15:20:24;22.70;;;14.00;;
2706;SDS011;7819;48.046;7.642;2023-03-01T15:22:50;23.73;;;15.10;;
2706;SDS011;7819;48.046;7.642;2023-03-01T15:25:19;21.63;;;15.23;;
2706;SDS011;7819;48.046;7.642;2023-03-01T15:27:45;17.80;;;12.43;;
2706;SDS011;7819;48.046;7.642;2023-03-01T15:30:18;20.87;;;13.40;;
2706;SDS011;7819;48.046;7.642;2023-03-01T15:32:45;17.77;;;13.47;;
2706;SDS011;7819;48.046;7.642;2023-03-01T15:37:54;18.43;;;13.33;;
2706;SDS011;7819;48.046;7.642;2023-03-01T15:40:26;20.17;;;14.40;;
2706;SDS011;7819;48.046;7.642;2023-03-01T15:45:24;20.00;;;13.47;;
2706;SDS011;7819;48.046;7.642;2023-03-01T15:47:55;20.30;;;14.80;;
2706;SDS011;7819;48.046;7.642;2023-03-01T15:50:24;20.60;;;14.47;;
2706;SDS011;7819;48.046;7.642;2023-03-01T15:52:49;16.67;;;12.50;;
2706;SDS011;7819;48.046;7.642;2023-03-01T15:55:17;19.00;;;13.07;;
2706;SDS011;7819;48.046;7.642;2023-03-01T15:57:42;19.10;;;13.50;;
2706;SDS011;7819;48.046;7.642;2023-03-01T16:00:09;21.63;;;14.60;;
2706;SDS011;7819;48.046;7.642;2023-03-01T16:02:38;17.23;;;12.60;;
2706;SDS011;7819;48.046;7.642;2023-03-01T16:05:03;16.30;;;12.90;;
2706;SDS011;7819;48.046;7.642;2023-03-01T16:07:28;16.47;;;14.20;;
2706;SDS011;7819;48.046;7.642;2023-03-01T16:09:55;19.37;;;12.63;;
2706;SDS011;7819;48.046;7.642;2023-03-01T16:12:21;20.67;;;14.30;;
2706;SDS011;7819;48.046;7.642;2023-03-01T16:14:46;25.40;;;16.57;;
2706;SDS011;7819;48.046;7.642;2023-03-01T16:17:13;21.70;;;15.33;;
2706;SDS011;7819;48.046;7.642;2023-03-01T16:19:38;26.87;;;14.60;;
2706;SDS011;7819;48.046;7.642;2023-03-01T16:22:03;24.67;;;15.70;;
2706;SDS011;7819;48.046;7.642;2023-03-01T16:24:29;23.53;;;15.90;;
2706;SDS011;7819;48.046;7.642;2023-03-01T16:26:54;16.87;;;13.43;;
2706;SDS011;7819;48.046;7.642;2023-03-01T16:29:20;20.47;;;15.00;;
2706;SDS011;7819;48.046;7.642;2023-03-01T16:31:45;21.70;;;14.77;;
2706;SDS011;7819;48.046;7.642;2023-03-01T16:34:10;16.57;;;11.60;;
2706;SDS011;7819;48.046;7.642;2023-03-01T16:36:35;21.00;;;14.43;;